Skip to main content

NOAA/GLERL Met Station at Chicago, IL

Previous 3 Hours (2 minute increments)
See also Previous 5 Days (top of hour)
Jump down to Data
Switch to [English][Metric]
Zoom: Click and drag, Pan: shift-click and drag, Unzoom: double-click, Unzoom All




See also 1-day windrose plot


NOAA/GLERL Met Station at Chicago, IL

Previous 3 Hours (2 minute increments)
See also Previous 5 Days (top of hour only)
Jump up to Graphs
Switch to [English][Metric]
                  Wind  Wind  Wind   Air   Dew   Rel
                   Spd   Gst   Dir  Temp    Pt   Hum
YYYY-MM-DD   CDT   kts   kts   deg     F     F     %
2017-06-22 15:20  15.4  17.7   211  84.9  68.8  57.9
2017-06-22 15:18  19.1  22.0   211  84.4  68.8  58.9
2017-06-22 15:16  16.5  18.9   214  84.7  68.9  58.4
2017-06-22 15:14  17.1  19.6   206  84.7  68.9  58.4
2017-06-22 15:12  17.7  20.8   205  84.0  68.9  59.8
2017-06-22 15:10  13.8  16.7   203  83.5  69.0  61.2
2017-06-22 15:08  13.4  15.6   201  82.6  68.9  62.8
2017-06-22 15:06  13.0  16.1   213  83.1  69.1  62.0
2017-06-22 15:04  13.2  14.8   214  83.7  69.1  61.1
2017-06-22 15:02  14.0  15.6   212  84.2  69.3  60.4
2017-06-22 15:00  14.6  15.2   211  83.7  69.3  61.4
2017-06-22 14:58  15.0  16.5   204  83.5  69.1  61.3
2017-06-22 14:56  16.3  18.1   195  84.6  69.6  60.2
2017-06-22 14:54  15.9  17.1   194  83.5  69.6  62.5
2017-06-22 14:52  13.4  14.0   193  82.6  69.4  63.9
2017-06-22 14:50  11.9  13.2   198  82.6  69.5  64.1
2017-06-22 14:48  12.4  13.8   203  81.9  69.3  65.2
2017-06-22 14:46  13.2  13.8   194  82.6  69.5  64.1
2017-06-22 14:44  12.6  13.8   195  81.5  69.1  65.6
2017-06-22 14:42  11.7  12.1   196  81.0  68.9  66.3
2017-06-22 14:40  11.5  13.6   203  79.9  68.7  68.1
2017-06-22 14:38  10.5  11.3   209  78.8  68.1  69.2
2017-06-22 14:36  12.2  13.8   197  81.7  68.6  64.0
2017-06-22 14:34  17.7  20.2   207  84.2  69.0  59.8
2017-06-22 14:32  19.4  22.4   200  84.4  69.2  59.7
2017-06-22 14:30  21.2  23.3   201  83.3  69.0  61.5
2017-06-22 14:28  18.9  23.7   204  81.5  68.5  64.2
2017-06-22 14:26  14.4  15.4   199  82.4  68.6  62.4
2017-06-22 14:24  15.2  16.5   206  82.0  68.6  63.3
2017-06-22 14:22  15.2  16.3   208  82.4  68.6  62.4
2017-06-22 14:20  17.5  20.6   209  83.5  68.7  60.5
2017-06-22 14:18  16.5  18.7   210  83.1  68.5  60.8
2017-06-22 14:16  15.4  17.1   207  83.7  68.5  59.8
2017-06-22 14:14  15.7  17.1   209  83.3  68.5  60.4
2017-06-22 14:12  15.6  17.1   212  82.9  68.3  60.8
2017-06-22 14:10  14.6  18.7   206  83.5  68.5  60.0
2017-06-22 14:08  14.0  15.0   214  83.5  68.6  60.2
2017-06-22 14:06  13.6  15.0   213  83.3  68.4  60.3
2017-06-22 14:04  13.6  15.6   215  83.5  68.4  59.9
2017-06-22 14:02  15.2  17.3   216  84.2  68.5  58.6
2017-06-22 14:00  17.1  17.9   217  84.2  68.5  58.7
2017-06-22 13:58  16.7  20.4   222  84.4  68.5  58.3
2017-06-22 13:56  21.6  24.3   220  83.8  68.3  58.9
2017-06-22 13:54  19.4  21.4   213  82.9  68.0  60.2
2017-06-22 13:52  16.5  18.7   216  83.1  68.4  60.6
2017-06-22 13:50  15.9  18.1   213  82.9  68.9  62.0
2017-06-22 13:48  16.1  16.9   213  83.1  68.9  61.7
2017-06-22 13:46  18.7  20.8   207  83.1  69.0  61.8
2017-06-22 13:44  19.8  21.4   203  82.2  68.8  63.3
2017-06-22 13:42  16.7  20.0   201  81.3  68.6  64.9
2017-06-22 13:40  13.6  15.6   210  81.1  68.4  64.8
2017-06-22 13:38  10.9  12.4   209  78.8  68.0  69.1
2017-06-22 13:36  11.3  13.0   204  79.0  68.0  68.6
2017-06-22 13:34  12.1  13.4   211  80.1  68.1  66.4
2017-06-22 13:32  13.4  14.8   203  80.8  68.4  65.5
2017-06-22 13:30  12.2  13.8   212  81.0  68.3  64.9
2017-06-22 13:28  12.2  14.0   208  81.5  68.2  63.6
2017-06-22 13:26  13.6  14.4   206  81.7  68.1  63.0
2017-06-22 13:24  15.2  16.1   202  81.7  68.3  63.3
2017-06-22 13:22  15.0  16.7   204  81.7  67.9  62.5
2017-06-22 13:20  16.5  19.2   208  81.5  67.9  62.9
2017-06-22 13:18  16.7  18.3   205  80.6  67.8  64.5
2017-06-22 13:16  17.9  19.2   200  81.9  67.9  62.2
2017-06-22 13:14  20.2  22.7   209  82.8  67.7  59.8
2017-06-22 13:12  21.0  22.7   217  82.2  67.4  60.2
2017-06-22 13:10  23.3  25.3   211  82.8  67.3  59.0
2017-06-22 13:08  23.9  25.7   207  83.1  67.3  58.3
2017-06-22 13:06  24.5  27.0   205  82.6  67.1  59.0
2017-06-22 13:04  22.7  26.8   205  80.6  66.8  62.2
2017-06-22 13:02  17.5  18.7   211  81.9  66.6  59.4
2017-06-22 13:00  19.4  22.0   209  81.5  66.4  59.7
2017-06-22 12:58  22.2  23.1   205  82.0  66.4  58.5
2017-06-22 12:56  21.8  23.3   203  81.3  66.5  60.2
2017-06-22 12:54  22.4  25.1   202  82.4  66.3  57.7
2017-06-22 12:52  23.7  25.7   203  82.9  66.3  56.6
2017-06-22 12:50  25.1  26.6   203  82.2  66.2  57.8
2017-06-22 12:48  24.3  25.9   204  81.3  65.9  58.9
2017-06-22 12:46  23.1  24.7   203  81.5  65.6  57.9
2017-06-22 12:44  26.4  28.8   203  82.6  65.1  55.0
2017-06-22 12:42  25.5  28.6   211  82.4  65.4  55.8
2017-06-22 12:40  21.8  24.3   206  81.3  65.8  58.8
2017-06-22 12:38  22.6  25.7   201  82.0  66.6  58.9
2017-06-22 12:36  22.7  25.7   200  82.6  66.5  57.8
2017-06-22 12:34  23.5  26.2   201  81.3  65.9  59.0
2017-06-22 12:32  21.4  23.1   199  80.8  66.0  60.3
2017-06-22 12:30  21.4  24.1   197  81.5  66.6  60.1
2017-06-22 12:28  19.6  22.0   196  79.9  66.7  63.6
2017-06-22 12:26  22.2  26.0   198  81.5  67.2  61.3
2017-06-22 12:24  23.1  26.6   196  82.9  67.1  58.3
2017-06-22 12:22  25.3  27.8   197  81.5  66.6  60.0
2017-06-22 12:20  23.3  28.0   197  82.4  66.3  57.6